createdAt,value
2023-10-29T00:02:24.600Z,96630.97
2023-10-29T00:04:52.573Z,96631.22
2023-10-29T00:07:20.168Z,96625.06
2023-10-29T00:09:47.659Z,96632.03
2023-10-29T00:12:15.567Z,96625.06
2023-10-29T00:14:43.125Z,96625.59
2023-10-29T00:17:10.715Z,96614.41
2023-10-29T00:19:38.253Z,96617.06
2023-10-29T00:22:06.022Z,96616.56
2023-10-29T00:24:33.568Z,96616.03
2023-10-29T00:27:01.153Z,96609.13
2023-10-29T00:29:28.705Z,96611.28
2023-10-29T00:31:56.286Z,96609.94
2023-10-29T00:34:23.736Z,96617.94
2023-10-29T00:36:51.339Z,96605.38
2023-10-29T00:39:19.056Z,96604.81
2023-10-29T00:41:46.634Z,96596.31
2023-10-29T00:44:14.240Z,96589.41
2023-10-29T00:46:43.193Z,96589.66
2023-10-29T00:49:11.073Z,96592.09
2023-10-29T00:51:38.733Z,96590.00
2023-10-29T00:54:07.582Z,96593.97
2023-10-29T00:56:35.364Z,96600.38
2023-10-29T00:59:03.506Z,96594.25
2023-10-29T01:01:32.242Z,96601.19
2023-10-29T01:04:00.849Z,96606.00
2023-10-29T01:06:29.359Z,96608.41
2023-10-29T01:08:57.202Z,96614.00
2023-10-29T01:11:24.861Z,96597.72
2023-10-29T01:13:52.452Z,96600.13
2023-10-29T01:16:19.969Z,96590.50
2023-10-29T01:18:48.472Z,96592.91
2023-10-29T01:21:17.457Z,96589.41
2023-10-29T01:23:45.081Z,96596.91
2023-10-29T01:26:12.744Z,96586.47
2023-10-29T01:28:41.479Z,96589.66
2023-10-29T01:31:09.071Z,96591.25
2023-10-29T01:33:36.780Z,96595.00
2023-10-29T01:36:05.092Z,96589.94
2023-10-29T01:38:33.825Z,96596.84
2023-10-29T01:41:01.927Z,96588.84
2023-10-29T01:43:29.408Z,96586.69
2023-10-29T01:45:57.046Z,96594.97
2023-10-29T01:48:25.998Z,96586.41
2023-10-29T01:50:53.687Z,96584.25
2023-10-29T01:53:21.210Z,96581.84
2023-10-29T01:55:48.770Z,96584.25
2023-10-29T01:58:16.318Z,96581.31
2023-10-29T02:00:43.938Z,96579.69
2023-10-29T02:03:11.510Z,96587.97
2023-10-29T02:05:39.948Z,96578.66
2023-10-29T02:08:07.474Z,96578.91
2023-10-29T02:10:35.112Z,96570.13
2023-10-29T02:13:02.585Z,96570.66
2023-10-29T02:15:30.142Z,96567.16
2023-10-29T02:17:57.696Z,96561.53
2023-10-29T02:20:25.364Z,96566.34
2023-10-29T02:22:52.822Z,96567.47
2023-10-29T02:25:20.468Z,96557.31
2023-10-29T02:27:51.275Z,96565.31
2023-10-29T02:30:19.058Z,96560.25
2023-10-29T02:32:46.971Z,96561.09
2023-10-29T02:35:15.549Z,96558.41
2023-10-29T02:37:43.053Z,96555.22
2023-10-29T02:40:10.979Z,96562.19
2023-10-29T02:42:38.418Z,96566.72
2023-10-29T02:45:06.352Z,96564.34
2023-10-29T02:47:33.936Z,96561.41
2023-10-29T02:50:01.524Z,96559.56
2023-10-29T02:52:29.074Z,96560.13
2023-10-29T02:54:57.869Z,96551.06
2023-10-29T02:57:25.505Z,96552.91
2023-10-29T02:59:53.093Z,96556.94
2023-10-29T03:02:20.700Z,96552.44
2023-10-29T03:04:48.531Z,96552.41
2023-10-29T03:07:16.249Z,96547.63
2023-10-29T03:09:43.754Z,96543.34
2023-10-29T03:12:11.279Z,96545.19
2023-10-29T03:14:38.851Z,96554.00
2023-10-29T03:17:06.391Z,96543.34
2023-10-29T03:19:34.083Z,96558.56
2023-10-29T03:22:03.139Z,96554.28
2023-10-29T03:24:30.713Z,96545.75
2023-10-29T03:26:58.277Z,96557.47
2023-10-29T03:29:25.908Z,96546.28
2023-10-29T03:31:53.472Z,96543.91
2023-10-29T03:34:21.081Z,96539.34
2023-10-29T03:36:48.666Z,96542.28
2023-10-29T03:39:17.608Z,96542.81
2023-10-29T03:41:45.148Z,96541.22
2023-10-29T03:44:12.713Z,96540.66
2023-10-29T03:46:40.284Z,96533.75
2023-10-29T03:49:07.882Z,96536.13
2023-10-29T03:51:36.063Z,96540.94
2023-10-29T03:54:04.434Z,96532.94
2023-10-29T03:56:31.972Z,96530.28
2023-10-29T03:58:59.971Z,96538.28
2023-10-29T04:01:28.063Z,96535.34
2023-10-29T04:03:55.722Z,96533.75
2023-10-29T04:06:23.264Z,96531.31
2023-10-29T04:08:51.205Z,96529.72
2023-10-29T04:11:18.805Z,96533.75
2023-10-29T04:13:46.482Z,96527.03
2023-10-29T04:16:14.272Z,96524.94
2023-10-29T04:18:42.074Z,96529.47
2023-10-29T04:21:09.604Z,96528.13
2023-10-29T04:23:38.014Z,96528.66
2023-10-29T04:26:05.622Z,96518.50
2023-10-29T04:28:33.170Z,96522.53
2023-10-29T04:31:01.540Z,96517.97
2023-10-29T04:33:29.597Z,96510.50
2023-10-29T04:35:57.194Z,96503.28
2023-10-29T04:38:24.842Z,96509.72
2023-10-29T04:40:53.107Z,96505.16
2023-10-29T04:43:20.662Z,96505.16
2023-10-29T04:45:48.208Z,96499.00
2023-10-29T04:48:17.645Z,96497.66
2023-10-29T04:50:45.293Z,96505.41
2023-10-29T04:53:13.234Z,96490.97
2023-10-29T04:55:40.809Z,96490.72
2023-10-29T04:58:08.324Z,96486.47
2023-10-29T05:00:35.921Z,96481.91
2023-10-29T05:03:03.674Z,96478.41
2023-10-29T05:05:32.164Z,96481.13
2023-10-29T05:08:00.116Z,96474.69
2023-10-29T05:10:29.660Z,96479.78
2023-10-29T05:12:57.957Z,96466.69
2023-10-29T05:15:26.135Z,96467.72
2023-10-29T05:17:53.826Z,96458.66
2023-10-29T05:20:21.602Z,96458.41
2023-10-29T05:22:49.196Z,96465.59
2023-10-29T05:25:16.882Z,96462.66
2023-10-29T05:27:52.734Z,96451.16
2023-10-29T05:30:20.870Z,96451.72
2023-10-29T05:32:48.780Z,96459.16
2023-10-29T05:35:16.571Z,96454.91
2023-10-29T05:37:44.102Z,96457.88
2023-10-29T05:40:12.185Z,96449.28
2023-10-29T05:42:39.718Z,96452.25
2023-10-29T05:45:08.322Z,96447.97
2023-10-29T05:47:35.956Z,96455.97
2023-10-29T05:50:05.512Z,96457.31
2023-10-29T05:52:33.783Z,96455.19
2023-10-29T05:55:04.942Z,96451.44
2023-10-29T05:57:32.564Z,96457.28
2023-10-29T06:00:00.440Z,96448.47
2023-10-29T06:02:28.281Z,96458.91
2023-10-29T06:04:55.833Z,96458.84
2023-10-29T06:07:23.441Z,96454.53
2023-10-29T06:09:50.895Z,96461.75
2023-10-29T06:12:19.562Z,96463.34
2023-10-29T06:14:48.366Z,96459.59
2023-10-29T06:17:26.619Z,96465.72
2023-10-29T06:19:54.910Z,96460.91
2023-10-29T06:22:22.592Z,96464.91
2023-10-29T06:24:50.294Z,96472.66
2023-10-29T06:27:17.889Z,96468.06
2023-10-29T06:29:45.688Z,96480.94
2023-10-29T06:32:13.269Z,96480.94
2023-10-29T06:34:40.859Z,96477.72
2023-10-29T06:37:08.359Z,96470.75
2023-10-29T06:39:35.877Z,96463.81
2023-10-29T06:42:03.433Z,96447.75
2023-10-29T06:44:31.387Z,96454.44
2023-10-29T06:46:58.838Z,96462.19
2023-10-29T06:49:26.741Z,96451.47
2023-10-29T06:51:55.081Z,96446.13
2023-10-29T06:54:22.680Z,96441.88
2023-10-29T06:56:50.307Z,96444.56
2023-10-29T06:59:19.757Z,96453.91
2023-10-29T07:01:48.520Z,96449.09
2023-10-29T07:04:16.536Z,96447.47
2023-10-29T07:06:45.356Z,96449.59
2023-10-29T07:09:13.025Z,96460.56
2023-10-29T07:11:41.671Z,96451.47
2023-10-29T07:14:09.788Z,96455.47
2023-10-29T07:16:39.002Z,96447.44
2023-10-29T07:19:06.670Z,96452.50
2023-10-29T07:21:34.302Z,96458.06
2023-10-29T07:24:04.854Z,96450.03
2023-10-29T07:26:36.224Z,96453.50
2023-10-29T07:29:04.114Z,96456.19
2023-10-29T07:31:32.213Z,96448.94
2023-10-29T07:33:59.824Z,96463.09
2023-10-29T07:36:27.382Z,96457.75
2023-10-29T07:38:55.176Z,96459.63
2023-10-29T07:41:22.990Z,96462.31
2023-10-29T07:43:50.705Z,96458.22
2023-10-29T07:46:18.234Z,96455.28
2023-10-29T07:48:45.763Z,96453.97
2023-10-29T07:51:13.345Z,96464.13
2023-10-29T07:53:40.919Z,96461.22
2023-10-29T07:56:12.296Z,96463.06
2023-10-29T07:58:40.196Z,96466.81
2023-10-29T08:01:12.229Z,96463.63
2023-10-29T08:03:44.444Z,96470.56
2023-10-29T08:06:13.575Z,96473.78
2023-10-29T08:08:41.664Z,96469.78
2023-10-29T08:11:19.549Z,96466.53
2023-10-29T08:13:47.393Z,96466.00
2023-10-29T08:16:15.254Z,96462.78
2023-10-29T08:18:42.927Z,96463.88
2023-10-29T08:21:10.614Z,96472.44
2023-10-29T08:23:38.307Z,96478.06
2023-10-29T08:26:05.836Z,96475.69
2023-10-29T08:28:33.443Z,96480.28
2023-10-29T08:31:00.958Z,96500.63
2023-10-29T08:33:28.725Z,96488.34
2023-10-29T08:35:56.339Z,96484.03
2023-10-29T08:38:23.918Z,96483.16
2023-10-29T08:40:51.542Z,96483.47
2023-10-29T08:43:19.138Z,96492.53
2023-10-29T08:45:46.754Z,96496.06
2023-10-29T08:48:14.588Z,96493.06
2023-10-29T08:50:42.145Z,96495.50
2023-10-29T08:53:09.747Z,96490.41
2023-10-29T08:55:37.299Z,96489.84
2023-10-29T08:58:04.849Z,96491.97
2023-10-29T09:00:45.508Z,96486.59
2023-10-29T09:03:16.182Z,96494.63
2023-10-29T09:05:44.814Z,96495.19
2023-10-29T09:08:12.921Z,96495.13
2023-10-29T09:10:44.142Z,96482.81
2023-10-29T09:13:12.351Z,96482.53
2023-10-29T09:15:40.078Z,96478.03
2023-10-29T09:18:07.973Z,96475.28
2023-10-29T09:20:39.644Z,96478.50
2023-10-29T09:23:07.401Z,96475.25
2023-10-29T09:25:35.202Z,96468.53
2023-10-29T09:28:06.345Z,96471.03
2023-10-29T09:30:34.074Z,96454.72
2023-10-29T09:33:01.645Z,96461.56
2023-10-29T09:35:29.254Z,96448.81
2023-10-29T09:37:56.709Z,96454.94
2023-10-29T09:40:24.451Z,96455.00
2023-10-29T09:42:57.177Z,96451.97
2023-10-29T09:45:27.248Z,96455.97
2023-10-29T09:47:56.073Z,96462.31
2023-10-29T09:50:23.683Z,96466.47
2023-10-29T09:52:52.701Z,96464.19
2023-10-29T09:55:24.339Z,96470.34
2023-10-29T09:57:52.347Z,96478.78
2023-10-29T10:00:20.194Z,96481.88
2023-10-29T10:02:53.040Z,96472.44
2023-10-29T10:05:25.232Z,96475.81
2023-10-29T10:07:53.546Z,96480.03
2023-10-29T10:10:22.322Z,96471.53
2023-10-29T10:12:51.851Z,96474.88
2023-10-29T10:15:20.609Z,96477.41
2023-10-29T10:17:50.386Z,96476.50
2023-10-29T10:20:22.012Z,96485.81
2023-10-29T10:23:16.823Z,96499.56
2023-10-29T10:25:44.440Z,96507.53
2023-10-29T10:28:11.932Z,96503.81
2023-10-29T10:30:40.319Z,96502.00
2023-10-29T10:33:16.239Z,96510.13
2023-10-29T10:35:52.992Z,96515.34
2023-10-29T10:38:21.595Z,96524.50
2023-10-29T10:40:58.802Z,96510.66
2023-10-29T10:43:28.119Z,96525.59
2023-10-29T10:45:56.419Z,96517.53
2023-10-29T10:48:24.390Z,96516.59
2023-10-29T10:50:54.532Z,96536.75
2023-10-29T10:53:25.366Z,96525.81
2023-10-29T10:56:02.982Z,96529.91
2023-10-29T10:58:34.296Z,96523.81
2023-10-29T11:01:04.090Z,96523.09
2023-10-29T11:03:34.466Z,96514.91
2023-10-29T11:06:02.914Z,96523.13
2023-10-29T11:08:30.478Z,96522.38
2023-10-29T11:10:59.910Z,96517.31
2023-10-29T11:13:28.280Z,96522.44
2023-10-29T11:15:56.941Z,96510.13
2023-10-29T11:18:33.610Z,96507.66
2023-10-29T11:21:06.647Z,96482.72
2023-10-29T11:23:35.946Z,96477.38
2023-10-29T11:26:24.550Z,96488.09
2023-10-29T11:28:54.969Z,96489.06
2023-10-29T11:31:24.344Z,96486.91
2023-10-29T11:33:57.785Z,96488.84
2023-10-29T11:36:33.260Z,96488.72
2023-10-29T11:39:16.463Z,96483.59
2023-10-29T11:41:46.021Z,96472.88
2023-10-29T11:44:19.842Z,96465.63
2023-10-29T11:46:59.283Z,96467.91
2023-10-29T11:49:27.516Z,96466.84
2023-10-29T11:51:55.845Z,96460.66
2023-10-29T11:54:24.029Z,96463.50
2023-10-29T11:56:52.713Z,96454.28
2023-10-29T11:59:20.317Z,96468.84
2023-10-29T12:01:47.873Z,96462.69
2023-10-29T12:04:15.854Z,96461.31
2023-10-29T12:06:45.569Z,96459.06
2023-10-29T12:09:19.258Z,96449.47
2023-10-29T12:11:55.327Z,96447.38
2023-10-29T12:14:44.704Z,96455.22
2023-10-29T12:17:14.100Z,96453.75
2023-10-29T12:19:44.844Z,96449.34
2023-10-29T12:22:15.171Z,96450.50
2023-10-29T12:24:43.980Z,96458.75
2023-10-29T12:27:11.746Z,96456.41
2023-10-29T12:29:39.354Z,96452.25
2023-10-29T12:32:15.444Z,96459.34
2023-10-29T12:34:50.823Z,96463.91
2023-10-29T12:37:26.463Z,96467.75
2023-10-29T12:40:01.338Z,96467.03
2023-10-29T12:42:54.484Z,96459.22
2023-10-29T12:45:30.022Z,96465.47
2023-10-29T12:48:14.079Z,96458.03
2023-10-29T12:50:45.451Z,96459.25
2023-10-29T12:53:13.806Z,96460.94
2023-10-29T12:55:45.834Z,96452.78
2023-10-29T12:58:13.386Z,96458.09
2023-10-29T13:00:40.963Z,96453.81
2023-10-29T13:03:08.835Z,96448.28
2023-10-29T13:05:36.367Z,96458.25
2023-10-29T13:08:06.133Z,96458.56
2023-10-29T13:10:34.330Z,96456.53
2023-10-29T13:13:01.902Z,96456.09
2023-10-29T13:15:30.923Z,96457.13
2023-10-29T13:17:58.451Z,96449.94
2023-10-29T13:20:28.086Z,96454.00
2023-10-29T13:22:55.990Z,96472.53
2023-10-29T13:25:23.908Z,96473.09
2023-10-29T13:27:51.577Z,96470.53
2023-10-29T13:30:19.676Z,96479.28
2023-10-29T13:32:47.897Z,96485.53
2023-10-29T13:35:17.908Z,96475.31
2023-10-29T13:37:45.590Z,96475.91
2023-10-29T13:40:13.208Z,96485.41
2023-10-29T13:42:40.834Z,96484.78
2023-10-29T13:45:08.826Z,96485.13
2023-10-29T13:47:36.403Z,96476.41
2023-10-29T13:50:04.283Z,96479.28
2023-10-29T13:52:31.827Z,96479.03
2023-10-29T13:54:59.279Z,96482.50
2023-10-29T13:57:26.935Z,96463.22
2023-10-29T13:59:54.438Z,96466.25
2023-10-29T14:02:22.083Z,96474.63
2023-10-29T14:04:49.919Z,96479.16
2023-10-29T14:07:17.735Z,96479.97
2023-10-29T14:09:45.451Z,96482.88
2023-10-29T14:12:13.022Z,96463.69
2023-10-29T14:14:40.551Z,96474.66
2023-10-29T14:17:08.131Z,96466.06
2023-10-29T14:19:36.660Z,96457.75
2023-10-29T14:22:04.570Z,96452.16
2023-10-29T14:24:31.975Z,96454.88
2023-10-29T14:27:00.285Z,96442.88
2023-10-29T14:29:28.256Z,96442.09
2023-10-29T14:31:56.047Z,96436.91
2023-10-29T14:34:23.641Z,96443.59
2023-10-29T14:36:51.231Z,96443.03
2023-10-29T14:39:18.810Z,96446.97
2023-10-29T14:41:47.145Z,96434.38
2023-10-29T14:44:16.094Z,96436.09
2023-10-29T14:46:43.735Z,96425.50
2023-10-29T14:49:11.946Z,96433.50
2023-10-29T14:51:40.655Z,96429.81
2023-10-29T14:54:08.534Z,96432.38
2023-10-29T14:56:36.089Z,96433.38
2023-10-29T14:59:05.095Z,96428.31
2023-10-29T15:01:32.940Z,96427.56
2023-10-29T15:04:00.538Z,96423.53
2023-10-29T15:06:28.162Z,96416.69
2023-10-29T15:08:55.650Z,96417.38
2023-10-29T15:11:36.190Z,96416.94
2023-10-29T15:14:06.634Z,96413.56
2023-10-29T15:16:34.860Z,96409.56
2023-10-29T15:19:05.532Z,96414.09
2023-10-29T15:21:34.396Z,96409.22
2023-10-29T15:24:02.379Z,96398.56
2023-10-29T15:26:30.066Z,96402.63
2023-10-29T15:28:57.550Z,96404.72
2023-10-29T15:31:25.259Z,96395.38
2023-10-29T15:33:53.311Z,96399.16
2023-10-29T15:36:20.940Z,96393.78
2023-10-29T15:38:48.490Z,96383.88
2023-10-29T15:41:17.065Z,96367.72
2023-10-29T15:43:44.553Z,96372.34
2023-10-29T15:46:12.168Z,96369.50
2023-10-29T15:48:39.764Z,96368.63
2023-10-29T15:51:09.826Z,96370.28
2023-10-29T15:53:38.075Z,96375.09
2023-10-29T15:56:07.547Z,96376.09
2023-10-29T15:58:35.110Z,96380.44
2023-10-29T16:01:02.951Z,96384.78
2023-10-29T16:03:31.206Z,96384.69
2023-10-29T16:06:07.569Z,96388.53
2023-10-29T16:08:39.725Z,96382.31
2023-10-29T16:11:08.898Z,96380.22
2023-10-29T16:13:37.829Z,96369.50
2023-10-29T16:16:06.046Z,96391.19
2023-10-29T16:18:33.736Z,96386.13
2023-10-29T16:21:01.308Z,96390.63
2023-10-29T16:23:28.858Z,96386.13
2023-10-29T16:25:56.428Z,96382.16
2023-10-29T16:28:23.907Z,96388.59
2023-10-29T16:30:51.493Z,96393.44
2023-10-29T16:33:19.118Z,96395.81
2023-10-29T16:35:46.779Z,96403.53
2023-10-29T16:38:14.301Z,96397.59
2023-10-29T16:40:44.715Z,96398.88
2023-10-29T16:43:12.337Z,96402.66
2023-10-29T16:45:40.019Z,96410.94
2023-10-29T16:48:08.183Z,96414.69
2023-10-29T16:50:52.363Z,96400.22
2023-10-29T16:53:27.483Z,96413.59
2023-10-29T16:55:54.977Z,96406.13
2023-10-29T16:58:22.826Z,96411.44
2023-10-29T17:00:50.321Z,96393.25
2023-10-29T17:03:18.048Z,96414.47
2023-10-29T17:05:45.721Z,96412.59
2023-10-29T17:08:14.046Z,96402.41
2023-10-29T17:10:41.573Z,96404.81
2023-10-29T17:13:09.222Z,96410.69
2023-10-29T17:15:37.058Z,96410.53
2023-10-29T17:18:04.809Z,96400.72
2023-10-29T17:20:32.309Z,96410.41
2023-10-29T17:22:59.860Z,96406.97
2023-10-29T17:25:27.389Z,96411.22
2023-10-29T17:27:55.511Z,96404.34
2023-10-29T17:30:23.697Z,96406.78
2023-10-29T17:32:58.832Z,96414.03
2023-10-29T17:35:31.191Z,96417.78
2023-10-29T17:37:58.868Z,96407.66
2023-10-29T17:40:27.015Z,96406.56
2023-10-29T17:42:54.614Z,96392.66
2023-10-29T17:45:22.320Z,96398.75
2023-10-29T17:47:50.527Z,96398.19
2023-10-29T17:50:18.026Z,96404.00
2023-10-29T17:52:45.585Z,96396.22
2023-10-29T17:55:13.139Z,96412.75
2023-10-29T17:57:40.755Z,96413.75
2023-10-29T18:00:09.164Z,96411.31
2023-10-29T18:02:40.546Z,96416.97
2023-10-29T18:05:11.994Z,96423.13
2023-10-29T18:07:40.968Z,96419.13
2023-10-29T18:10:08.813Z,96417.75
2023-10-29T18:12:36.368Z,96418.09
2023-10-29T18:15:04.000Z,96417.66
2023-10-29T18:17:33.215Z,96416.03
2023-10-29T18:20:00.830Z,96424.63
2023-10-29T18:22:28.364Z,96417.44
2023-10-29T18:24:56.011Z,96410.25
2023-10-29T18:27:24.513Z,96396.91
2023-10-29T18:29:52.160Z,96405.41
2023-10-29T18:32:19.864Z,96397.84
2023-10-29T18:34:47.697Z,96400.03
2023-10-29T18:37:15.535Z,96398.97
2023-10-29T18:39:42.956Z,96393.34
2023-10-29T18:42:10.749Z,96405.94
2023-10-29T18:44:38.211Z,96408.56
2023-10-29T18:47:09.002Z,96405.63
2023-10-29T18:49:36.613Z,96412.09
2023-10-29T18:52:04.715Z,96417.44
2023-10-29T18:54:32.370Z,96410.75
2023-10-29T18:57:00.523Z,96419.34
2023-10-29T18:59:28.309Z,96411.75
2023-10-29T19:01:55.823Z,96423.00
2023-10-29T19:04:23.547Z,96419.75
2023-10-29T19:06:51.053Z,96420.22
2023-10-29T19:09:19.234Z,96427.34
2023-10-29T19:11:46.745Z,96429.97
2023-10-29T19:14:14.302Z,96429.69
2023-10-29T19:16:41.764Z,96435.38
2023-10-29T19:19:09.713Z,96452.78
2023-10-29T19:21:37.277Z,96457.56
2023-10-29T19:24:05.218Z,96445.00
2023-10-29T19:26:32.786Z,96471.28
2023-10-29T19:29:00.307Z,96474.25
2023-10-29T19:31:28.195Z,96488.72
2023-10-29T19:33:55.984Z,96464.63
2023-10-29T19:36:23.935Z,96468.84
2023-10-29T19:38:51.484Z,96464.16
2023-10-29T19:41:19.179Z,96480.91
2023-10-29T19:43:46.788Z,96495.91
2023-10-29T19:46:14.276Z,96501.03
2023-10-29T19:48:41.938Z,96509.59
2023-10-29T19:51:09.751Z,96515.00
2023-10-29T19:53:37.796Z,96538.03
2023-10-29T19:56:09.472Z,96530.31
2023-10-29T19:58:37.074Z,96547.75
2023-10-29T20:01:09.516Z,96555.53
2023-10-29T20:03:37.918Z,96555.47
2023-10-29T20:06:09.656Z,96569.63
2023-10-29T20:08:39.242Z,96580.66
2023-10-29T20:11:09.651Z,96583.91
2023-10-29T20:13:38.243Z,96586.06
2023-10-29T20:16:09.937Z,96595.72
2023-10-29T20:18:38.384Z,96599.56
2023-10-29T20:21:12.193Z,96608.94
2023-10-29T20:23:39.675Z,96596.44
2023-10-29T20:26:17.143Z,96607.69
2023-10-29T20:28:45.711Z,96613.63
2023-10-29T20:31:13.179Z,96618.69
2023-10-29T20:33:40.944Z,96627.09
2023-10-29T20:36:09.000Z,96639.16
2023-10-29T20:38:36.576Z,96639.97
2023-10-29T20:41:10.394Z,96637.03
2023-10-29T20:43:38.811Z,96640.75
2023-10-29T20:46:06.420Z,96626.56
2023-10-29T20:48:34.099Z,96629.50
2023-10-29T20:51:02.488Z,96630.00
2023-10-29T20:53:30.524Z,96639.31
2023-10-29T20:55:58.100Z,96642.25
2023-10-29T20:58:25.586Z,96646.91
2023-10-29T21:00:53.063Z,96653.66
2023-10-29T21:03:20.845Z,96659.78
2023-10-29T21:05:56.453Z,96672.94
2023-10-29T21:08:24.156Z,96678.88
2023-10-29T21:10:53.385Z,96673.28
2023-10-29T21:13:20.902Z,96681.88
2023-10-29T21:15:48.745Z,96666.34
2023-10-29T21:18:16.400Z,96657.78
2023-10-29T21:20:46.434Z,96664.78
2023-10-29T21:23:14.052Z,96674.69
2023-10-29T21:25:41.584Z,96662.09
2023-10-29T21:28:09.251Z,96668.25
2023-10-29T21:30:38.824Z,96676.03
2023-10-29T21:33:06.541Z,96674.13
2023-10-29T21:35:35.518Z,96694.22
2023-10-29T21:38:03.163Z,96683.78
2023-10-29T21:40:34.621Z,96693.16
2023-10-29T21:43:02.396Z,96702.78
2023-10-29T21:45:29.953Z,96690.25
2023-10-29T21:47:57.591Z,96696.63
2023-10-29T21:50:25.150Z,96671.47
2023-10-29T21:52:52.740Z,96669.03
2023-10-29T21:55:20.295Z,96659.13
2023-10-29T21:57:47.917Z,96661.00
2023-10-29T22:00:15.670Z,96661.31
2023-10-29T22:02:43.361Z,96658.38
2023-10-29T22:05:10.920Z,96660.81
2023-10-29T22:07:38.465Z,96659.47
2023-10-29T22:10:06.512Z,96670.47
2023-10-29T22:12:34.060Z,96675.53
2023-10-29T22:15:01.688Z,96671.53
2023-10-29T22:17:29.282Z,96654.13
2023-10-29T22:19:56.748Z,96652.28
2023-10-29T22:22:24.244Z,96654.41
2023-10-29T22:24:51.720Z,96667.53
2023-10-29T22:27:19.804Z,96679.81
2023-10-29T22:29:47.498Z,96691.59
2023-10-29T22:32:15.952Z,96693.19
2023-10-29T22:34:43.490Z,96686.22
2023-10-29T22:37:11.367Z,96673.94
2023-10-29T22:39:38.977Z,96661.63
2023-10-29T22:42:08.021Z,96659.22
2023-10-29T22:44:35.483Z,96655.22
2023-10-29T22:47:03.176Z,96652.28
2023-10-29T22:49:30.683Z,96654.16
2023-10-29T22:51:58.320Z,96656.84
2023-10-29T22:54:25.837Z,96645.09
2023-10-29T22:56:53.433Z,96655.25
2023-10-29T22:59:20.931Z,96659.53
2023-10-29T23:01:48.439Z,96652.31
2023-10-29T23:04:16.017Z,96652.56
2023-10-29T23:06:43.702Z,96653.91
2023-10-29T23:09:11.315Z,96653.66
2023-10-29T23:11:38.968Z,96661.66
2023-10-29T23:14:06.403Z,96645.13
2023-10-29T23:16:34.058Z,96655.00
2023-10-29T23:19:01.574Z,96641.38
2023-10-29T23:21:29.124Z,96648.06
2023-10-29T23:23:56.624Z,96639.78
2023-10-29T23:26:24.226Z,96630.44
2023-10-29T23:28:51.747Z,96636.59
2023-10-29T23:31:19.331Z,96637.38
2023-10-29T23:33:46.878Z,96634.19
2023-10-29T23:36:14.541Z,96623.25
2023-10-29T23:38:42.020Z,96619.47
2023-10-29T23:41:09.640Z,96630.69
2023-10-29T23:43:37.096Z,96634.16
2023-10-29T23:46:05.406Z,96641.41
2023-10-29T23:48:33.035Z,96632.84
2023-10-29T23:51:00.544Z,96635.75
2023-10-29T23:53:28.092Z,96634.13
2023-10-29T23:55:56.195Z,96627.47
2023-10-29T23:58:23.639Z,96618.59
